Time;durP1;ratioP1;P1;durP2;ratioP2;P2;SDS_P1;SDS_P2;PMS_P1;PMS_P2;Temp;Humidity;BMP_temperature;BMP_pressure;BME280_temperature;BME280_humidity;BME280_pressure;Samples;Min_cycle;Max_cycle;Signal;HPM_P1;HPM_P2
2022/03/15 00:00:24;;;;;;;10.38;7.65;;;;;;;6.53;36.62;97931.19;1753429;81;20988;-82
2022/03/15 00:02:52;;;;;;;8.68;7.12;;;;;;;6.49;38.04;97925.06;1748414;81;21013;-82
2022/03/15 00:05:18;;;;;;;10.30;7.08;;;;;;;6.36;37.90;97927.80;1748228;81;21354;-82
2022/03/15 00:07:44;;;;;;;8.88;7.60;;;;;;;6.31;37.94;97928.59;1757398;81;20938;-81
2022/03/15 00:10:12;;;;;;;9.35;8.13;;;;;;;6.27;38.04;97929.30;1754339;81;21016;-82
2022/03/15 00:12:38;;;;;;;11.43;7.97;;;;;;;6.30;38.55;97929.53;1717898;82;21053;-82
2022/03/15 00:15:09;;;;;;;9.83;7.75;;;;;;;6.24;38.44;97922.27;1761018;81;21015;-80
2022/03/15 00:17:38;;;;;;;10.40;7.00;;;;;;;6.19;38.45;97924.39;1756893;81;21441;-80
2022/03/15 00:20:05;;;;;;;8.75;6.58;;;;;;;6.14;38.32;97919.55;1762330;81;21382;-81
2022/03/15 00:22:37;;;;;;;8.78;7.20;;;;;;;6.08;38.36;97918.73;1752317;81;20958;-80
2022/03/15 00:25:06;;;;;;;11.15;8.08;;;;;;;6.05;38.83;97913.81;1763135;81;21408;-80
2022/03/15 00:27:34;;;;;;;10.58;8.15;;;;;;;6.05;39.51;97918.98;1753377;81;21017;-80
2022/03/15 00:30:01;;;;;;;9.90;6.90;;;;;;;6.00;39.69;97914.61;1750708;81;20966;-80
2022/03/15 00:32:27;;;;;;;8.28;6.97;;;;;;;5.92;40.79;97917.78;1757112;81;20905;-80
2022/03/15 00:34:52;;;;;;;9.85;7.58;;;;;;;5.80;40.19;97916.08;1749357;82;21040;-80
2022/03/15 00:37:19;;;;;;;10.10;7.90;;;;;;;5.81;41.11;97917.72;1760665;81;21041;-80
2022/03/15 00:39:45;;;;;;;10.20;8.03;;;;;;;5.75;41.35;97921.23;1728431;81;21339;-80
2022/03/15 00:42:10;;;;;;;12.15;7.95;;;;;;;5.65;41.49;97915.45;1760557;81;20959;-80
2022/03/15 00:44:36;;;;;;;8.35;7.35;;;;;;;5.54;40.80;97915.91;1753300;81;21226;-80
2022/03/15 00:47:02;;;;;;;8.68;7.08;;;;;;;5.57;41.17;97918.27;1750953;81;21981;-81
2022/03/15 00:49:28;;;;;;;11.05;7.78;;;;;;;5.56;40.30;97915.33;1754304;81;20968;-80
2022/03/15 00:51:54;;;;;;;11.20;8.78;;;;;;;5.65;40.14;97921.08;1753911;81;21021;-80
2022/03/15 00:54:23;;;;;;;12.35;8.80;;;;;;;5.68;40.46;97909.25;1766916;81;21329;-80
2022/03/15 00:56:50;;;;;;;11.28;8.15;;;;;;;5.70;40.28;97907.40;1756666;81;21041;-80
2022/03/15 00:59:16;;;;;;;11.03;8.23;;;;;;;5.69;40.18;97900.13;1759678;81;20954;-80
2022/03/15 01:01:41;;;;;;;9.78;7.28;;;;;;;5.66;39.90;97899.05;1757967;81;20950;-80
2022/03/15 01:04:07;;;;;;;10.43;8.60;;;;;;;5.71;39.84;97895.68;1754489;81;20977;-80
2022/03/15 01:06:34;;;;;;;9.83;8.48;;;;;;;5.74;40.52;97897.20;1751620;81;20989;-80
2022/03/15 01:09:02;;;;;;;11.30;7.58;;;;;;;5.72;39.93;97901.66;1720935;82;21004;-80
2022/03/15 01:11:27;;;;;;;10.35;8.03;;;;;;;5.78;39.27;97893.45;1755168;81;21338;-80
2022/03/15 01:13:53;;;;;;;8.70;6.60;;;;;;;5.85;39.53;97889.46;1733128;81;20969;-81
2022/03/15 01:16:20;;;;;;;11.33;7.53;;;;;;;5.82;40.16;97887.12;1763074;81;21023;-80
2022/03/15 01:18:47;;;;;;;11.78;7.87;;;;;;;5.77;40.72;97881.96;1756387;81;21053;-81
2022/03/15 01:21:13;;;;;;;11.57;8.35;;;;;;;5.71;39.81;97878.91;1766577;81;21479;-80
2022/03/15 01:23:41;;;;;;;9.95;8.60;;;;;;;5.72;39.22;97888.77;1735106;81;21010;-80
2022/03/15 01:26:07;;;;;;;9.45;6.90;;;;;;;5.83;40.03;97884.89;1751948;81;21018;-80
2022/03/15 01:28:33;;;;;;;8.50;6.53;;;;;;;5.89;39.81;97877.18;1749871;81;21210;-80
2022/03/15 01:30:59;;;;;;;10.75;8.43;;;;;;;5.85;40.41;97884.30;1755211;81;20980;-80
2022/03/15 01:33:24;;;;;;;10.85;7.35;;;;;;;5.87;40.06;97885.03;1756327;81;21020;-80
2022/03/15 01:35:51;;;;;;;9.95;8.20;;;;;;;5.93;39.48;97875.56;1762733;81;21431;-80
2022/03/15 01:38:16;;;;;;;10.20;8.38;;;;;;;5.97;40.09;97886.00;1753591;81;21067;-80
2022/03/15 01:40:42;;;;;;;9.75;6.75;;;;;;;5.92;40.70;97887.29;1745922;81;20992;-80
2022/03/15 01:43:08;;;;;;;8.65;6.58;;;;;;;5.82;40.18;97890.16;1731255;80;21009;-81
2022/03/15 01:45:36;;;;;;;10.63;9.50;;;;;;;5.77;40.63;97887.13;1757268;81;20997;-80
2022/03/15 01:48:03;;;;;;;12.05;8.90;;;;;;;5.76;39.76;97886.77;1757491;81;20966;-81
2022/03/15 01:50:29;;;;;;;10.03;8.08;;;;;;;5.87;40.20;97885.03;1755923;81;21024;-80
2022/03/15 01:52:55;;;;;;;11.97;9.63;;;;;;;5.89;40.54;97881.87;1727699;80;21041;-80
2022/03/15 01:55:21;;;;;;;11.35;9.00;;;;;;;5.92;40.72;97887.29;1768345;80;20973;-80
2022/03/15 01:57:47;;;;;;;14.20;8.78;;;;;;;5.91;39.90;97882.60;1761253;81;20985;-80
2022/03/15 02:00:15;;;;;;;10.25;7.75;;;;;;;5.94;41.22;97878.49;1765321;81;20997;-80
2022/03/15 02:02:40;;;;;;;9.65;7.47;;;;;;;5.85;40.98;97884.30;1757920;81;20991;-80
2022/03/15 02:05:07;;;;;;;11.78;9.00;;;;;;;5.73;41.18;97881.38;1756174;81;21328;-80
2022/03/15 02:07:33;;;;;;;10.15;8.18;;;;;;;5.72;40.94;97880.55;1716127;81;21378;-80
2022/03/15 02:09:58;;;;;;;10.75;8.98;;;;;;;5.70;41.33;97879.85;1759610;80;21055;-80
2022/03/15 02:12:24;;;;;;;10.13;8.48;;;;;;;5.65;41.29;97874.66;1762379;81;20964;-80
2022/03/15 02:14:50;;;;;;;11.85;8.58;;;;;;;5.77;41.26;97877.62;1756596;80;21001;-80
2022/03/15 02:17:15;;;;;;;9.23;6.83;;;;;;;5.75;42.37;97879.97;1769529;81;21010;-80
2022/03/15 02:19:43;;;;;;;11.93;8.13;;;;;;;5.71;41.17;97887.13;1762882;80;20979;-81
2022/03/15 02:22:08;;;;;;;10.10;8.18;;;;;;;5.72;41.18;97884.42;1731442;80;21067;-80
2022/03/15 02:24:35;;;;;;;10.30;7.97;;;;;;;5.73;41.67;97886.06;1770049;81;20944;-80
2022/03/15 02:27:02;;;;;;;9.00;7.55;;;;;;;5.64;41.76;97884.16;1754682;80;21017;-80
2022/03/15 02:29:28;;;;;;;8.88;7.45;;;;;;;5.58;42.48;97892.36;1733013;81;21025;-80
2022/03/15 02:31:54;;;;;;;10.65;7.95;;;;;;;5.51;41.79;97895.49;1751631;81;21059;-80
2022/03/15 02:34:19;;;;;;;9.75;8.58;;;;;;;5.51;42.90;97896.31;1759684;80;21453;-80
2022/03/15 02:36:45;;;;;;;9.80;7.87;;;;;;;5.42;42.59;97900.87;1767169;81;21078;-80
2022/03/15 02:39:11;;;;;;;12.60;8.40;;;;;;;5.40;42.62;97897.13;1762612;81;21025;-80
2022/03/15 02:41:37;;;;;;;11.20;9.20;;;;;;;5.42;41.97;97900.41;1754228;82;22076;-80
2022/03/15 02:44:03;;;;;;;13.18;9.40;;;;;;;5.38;43.43;97893.84;1759784;81;21004;-80
2022/03/15 02:46:30;;;;;;;10.65;7.47;;;;;;;5.34;42.36;97898.84;1758678;80;21370;-80
2022/03/15 02:48:59;;;;;;;9.60;8.38;;;;;;;5.42;42.60;97892.67;1761818;81;21000;-80
2022/03/15 02:51:25;;;;;;;10.88;8.65;;;;;;;5.45;43.18;97893.38;1763304;80;21005;-80
2022/03/15 02:53:58;;;;;;;7.60;5.90;;;;;;;5.38;43.42;97902.86;1757849;81;21368;-80
2022/03/15 02:56:19;;;;;;;9.18;7.70;;;;;;;5.35;43.80;97906.10;1759229;80;20985;-80
2022/03/15 02:58:45;;;;;;;7.83;6.08;;;;;;;5.22;44.18;97902.80;1767578;81;20969;-80
2022/03/15 03:01:11;;;;;;;9.45;7.75;;;;;;;5.12;44.19;97906.48;1755979;80;20934;-80
2022/03/15 03:03:37;;;;;;;10.82;8.15;;;;;;;5.12;42.88;97912.47;1765064;81;21335;-80
2022/03/15 03:06:03;;;;;;;10.48;8.15;;;;;;;5.30;43.01;97920.63;1756843;80;20993;-80
2022/03/15 03:08:31;;;;;;;8.85;7.60;;;;;;;5.42;41.89;97924.07;1747316;81;20981;-80
2022/03/15 03:11:00;;;;;;;10.25;7.92;;;;;;;5.57;42.27;97918.27;1757296;81;21278;-79
2022/03/15 03:13:26;;;;;;;10.90;7.90;;;;;;;5.64;42.72;97916.86;1755729;81;20996;-82
2022/03/15 03:15:56;;;;;;;9.90;8.40;;;;;;;5.60;42.75;97914.16;1755923;81;20983;-81
2022/03/15 03:18:28;;;;;;;10.82;8.50;;;;;;;5.55;42.79;97916.27;1765264;81;21355;-82
2022/03/15 03:20:54;;;;;;;9.90;8.00;;;;;;;5.51;43.03;97909.20;1757260;81;21051;-81
2022/03/15 03:23:20;;;;;;;9.53;6.95;;;;;;;5.44;42.79;97911.89;1755814;81;20988;-82
2022/03/15 03:25:46;;;;;;;9.13;6.72;;;;;;;5.45;43.00;97915.28;1755178;81;21048;-81
2022/03/15 03:28:13;;;;;;;9.93;7.47;;;;;;;5.41;43.57;97914.70;1763952;81;21042;-81
2022/03/15 03:30:45;;;;;;;9.70;7.55;;;;;;;5.30;44.43;97915.94;1756577;81;20996;-81
2022/03/15 03:33:09;;;;;;;8.90;7.62;;;;;;;5.21;43.97;97911.47;1752942;81;21410;-81
2022/03/15 03:35:34;;;;;;;9.18;7.60;;;;;;;5.19;44.62;97910.72;1757532;81;21060;-81
2022/03/15 03:38:00;;;;;;;9.88;6.80;;;;;;;5.12;44.78;97911.18;1757253;80;21012;-81
2022/03/15 03:40:26;;;;;;;9.65;8.03;;;;;;;5.03;45.17;97907.95;1762978;81;21331;-81
2022/03/15 03:42:52;;;;;;;15.23;11.18;;;;;;;5.04;44.31;97908.78;1757419;80;21015;-81
2022/03/15 03:45:17;;;;;;;15.55;12.35;;;;;;;5.09;44.98;97911.41;1763220;81;20988;-81
2022/03/15 03:47:43;;;;;;;11.33;9.10;;;;;;;5.08;44.36;97908.47;1763938;80;20933;-82
2022/03/15 03:50:09;;;;;;;11.68;8.18;;;;;;;5.07;44.63;97909.88;1761059;80;20990;-81
2022/03/15 03:52:35;;;;;;;12.90;7.75;;;;;;;5.02;45.01;97906.78;1751236;80;21076;-81
2022/03/15 03:55:01;;;;;;;12.50;8.60;;;;;;;4.99;45.75;97914.73;1749584;82;21010;-81
2022/03/15 03:57:27;;;;;;;11.15;8.25;;;;;;;4.92;46.01;97915.65;1724929;82;21014;-81
2022/03/15 03:59:52;;;;;;;11.08;8.70;;;;;;;4.80;45.76;97910.08;1753635;82;21340;-81
2022/03/15 04:02:18;;;;;;;10.58;8.08;;;;;;;4.79;46.06;97911.83;1741399;82;20985;-82
2022/03/15 04:04:44;;;;;;;11.65;8.63;;;;;;;4.82;46.12;97914.18;1737737;81;20931;-82
2022/03/15 04:07:11;;;;;;;8.68;7.17;;;;;;;4.83;46.26;97908.09;1739651;82;21287;-82
2022/03/15 04:09:39;;;;;;;10.05;7.58;;;;;;;4.77;45.72;97908.55;1739593;82;20989;-81
2022/03/15 04:12:05;;;;;;;10.45;7.87;;;;;;;4.79;45.74;97905.86;1739428;82;21007;-81
2022/03/15 04:14:31;;;;;;;10.65;8.43;;;;;;;4.81;46.04;97903.52;1736805;81;20918;-81
2022/03/15 04:16:57;;;;;;;12.28;8.10;;;;;;;4.81;45.88;97900.13;1747373;81;21385;-81
2022/03/15 04:19:23;;;;;;;9.23;8.03;;;;;;;4.86;45.24;97902.37;1728724;82;20978;-81
2022/03/15 04:21:49;;;;;;;9.00;8.10;;;;;;;5.02;45.01;97901.16;1743482;82;21025;-82
2022/03/15 04:24:16;;;;;;;10.58;8.90;;;;;;;5.09;44.47;97897.23;1750075;82;21377;-81
2022/03/15 04:26:42;;;;;;;8.33;6.87;;;;;;;5.24;44.58;97890.62;1720992;82;21036;-82
2022/03/15 04:29:08;;;;;;;9.40;7.67;;;;;;;5.23;44.56;97892.84;1753950;81;21432;-82
2022/03/15 04:31:34;;;;;;;10.30;8.53;;;;;;;5.29;44.26;97891.91;1755021;81;20979;-81
2022/03/15 04:34:00;;;;;;;10.30;8.53;;;;;;;5.38;44.28;97889.97;1740652;82;20983;-81
2022/03/15 04:36:26;;;;;;;10.58;8.50;;;;;;;5.40;44.82;97887.28;1741474;81;21008;-81
2022/03/15 04:38:52;;;;;;;10.18;7.53;;;;;;;5.38;44.56;97886.57;1744189;81;21021;-81
2022/03/15 04:41:17;;;;;;;8.75;7.55;;;;;;;5.38;44.94;97887.39;1752124;81;21404;-81
2022/03/15 04:43:43;;;;;;;10.30;8.50;;;;;;;5.39;44.17;97896.77;1747850;81;20996;-81
2022/03/15 04:46:10;;;;;;;9.88;7.95;;;;;;;5.37;45.12;97893.95;1747968;82;20986;-81
2022/03/15 04:48:36;;;;;;;10.80;8.30;;;;;;;5.26;44.89;97896.48;1743520;81;21045;-82
2022/03/15 04:51:02;;;;;;;9.50;7.55;;;;;;;5.21;45.60;97891.67;1730844;81;21029;-81
2022/03/15 04:53:27;;;;;;;9.70;7.50;;;;;;;5.22;45.27;97898.93;1738725;80;21089;-81
2022/03/15 04:55:53;;;;;;;9.93;8.58;;;;;;;5.20;45.50;97896.44;1745933;82;21415;-81
2022/03/15 04:58:20;;;;;;;10.18;7.37;;;;;;;5.19;45.72;97896.55;1744907;82;21037;-81
2022/03/15 05:00:45;;;;;;;10.72;9.40;;;;;;;5.21;45.68;97900.69;1742330;81;21314;-79
2022/03/15 05:03:11;;;;;;;9.55;8.08;;;;;;;5.22;46.06;97900.22;1738392;81;20969;-79
2022/03/15 05:05:37;;;;;;;8.55;6.95;;;;;;;5.20;46.17;97901.59;1721256;82;21284;-79
2022/03/15 05:08:04;;;;;;;11.33;7.90;;;;;;;5.20;45.71;97899.02;1703388;82;20963;-79
2022/03/15 05:13:14;;;;;;;8.60;6.72;;;;;;;5.31;46.04;97900.36;1725156;82;21048;-81
2022/03/15 05:15:40;;;;;;;8.55;7.60;;;;;;;5.26;46.00;97896.48;1739634;82;21063;-81
2022/03/15 05:18:05;;;;;;;11.30;8.83;;;;;;;5.28;46.41;97897.19;1743676;82;21054;-81
2022/03/15 05:20:33;;;;;;;9.95;7.87;;;;;;;5.28;46.43;97903.16;1726683;82;21538;-81
2022/03/15 05:22:59;;;;;;;10.40;8.38;;;;;;;5.32;46.00;97902.00;1743729;82;21087;-81
2022/03/15 05:25:25;;;;;;;10.20;8.15;;;;;;;5.33;46.28;97899.77;1743606;81;20967;-81
2022/03/15 05:27:50;;;;;;;12.35;8.33;;;;;;;5.36;46.14;97896.14;1745918;82;21111;-81
2022/03/15 05:30:17;;;;;;;9.23;7.95;;;;;;;5.42;46.28;97908.14;1743367;82;21417;-81
2022/03/15 05:32:43;;;;;;;10.03;7.80;;;;;;;5.39;46.35;97909.66;1741994;82;21016;-81
2022/03/15 05:35:09;;;;;;;9.68;8.45;;;;;;;5.35;46.55;97909.97;1748426;82;21015;-81
2022/03/15 05:37:35;;;;;;;8.68;6.10;;;;;;;5.37;46.21;97910.23;1717709;82;21396;-81
2022/03/15 05:40:00;;;;;;;9.20;7.30;;;;;;;5.39;46.64;97906.25;1733215;82;21065;-81
2022/03/15 05:42:26;;;;;;;9.95;8.45;;;;;;;5.38;46.75;97908.02;1729873;82;20989;-81
2022/03/15 05:44:52;;;;;;;7.72;6.25;;;;;;;5.37;46.94;97905.08;1739398;82;21551;-81
2022/03/15 05:47:18;;;;;;;11.95;8.23;;;;;;;5.36;46.78;97902.59;1740352;82;21041;-81
2022/03/15 05:49:44;;;;;;;10.63;8.15;;;;;;;5.36;46.75;97905.98;1740025;82;20950;-82
2022/03/15 05:52:10;;;;;;;10.03;8.28;;;;;;;5.37;46.72;97907.66;1740280;82;21030;-81
2022/03/15 05:54:37;;;;;;;11.08;8.40;;;;;;;5.40;46.60;97904.85;1740450;82;20997;-81
2022/03/15 05:57:03;;;;;;;9.18;7.42;;;;;;;5.42;47.02;97901.69;1741826;81;21428;-81
2022/03/15 05:59:29;;;;;;;9.05;7.33;;;;;;;5.42;46.32;97898.30;1743021;81;20896;-82
2022/03/15 06:01:54;;;;;;;10.88;7.97;;;;;;;5.43;46.49;97892.20;1724551;81;20962;-81
2022/03/15 06:04:24;;;;;;;9.35;7.60;;;;;;;5.45;46.84;97898.06;1743445;81;21396;-81
2022/03/15 06:06:48;;;;;;;11.30;7.83;;;;;;;5.40;47.23;97899.70;1737821;80;21037;-82
2022/03/15 06:09:14;;;;;;;12.13;8.23;;;;;;;5.39;47.42;97899.34;1739546;81;21372;-81
2022/03/15 06:11:39;;;;;;;9.78;8.58;;;;;;;5.37;47.72;97894.77;1731786;82;20978;-81
2022/03/15 06:14:06;;;;;;;9.40;7.42;;;;;;;5.37;47.56;97892.66;1741153;81;20997;-82
2022/03/15 06:16:32;;;;;;;10.70;9.53;;;;;;;5.41;47.58;97894.07;1739877;81;20989;-81
2022/03/15 06:18:57;;;;;;;9.98;7.65;;;;;;;5.43;47.50;97898.17;1735671;82;21391;-83
2022/03/15 06:21:23;;;;;;;9.70;7.90;;;;;;;5.46;47.79;97893.73;1734012;81;21014;-81
2022/03/15 06:23:49;;;;;;;8.83;7.25;;;;;;;5.51;47.99;97890.34;1735897;82;21050;-81
2022/03/15 06:26:18;;;;;;;9.75;8.05;;;;;;;5.46;48.03;97893.26;1731234;82;21089;-81
2022/03/15 06:28:43;;;;;;;10.13;8.30;;;;;;;5.47;48.26;97892.79;1733944;82;20997;-81
2022/03/15 06:31:09;;;;;;;11.12;8.53;;;;;;;5.47;47.71;97892.32;1738270;82;21064;-81
2022/03/15 06:33:35;;;;;;;8.60;7.50;;;;;;;5.55;48.02;97894.35;1738523;82;21002;-81
2022/03/15 06:36:06;;;;;;;8.70;7.33;;;;;;;5.60;48.37;97894.83;1738739;82;21400;-81
2022/03/15 06:38:31;;;;;;;11.18;7.67;;;;;;;5.67;47.36;97895.53;1738549;82;21402;-81
2022/03/15 06:40:59;;;;;;;8.58;6.70;;;;;;;5.76;47.92;97892.75;1738671;82;20993;-82
2022/03/15 06:43:24;;;;;;;10.78;8.10;;;;;;;5.87;47.27;97894.53;1738424;82;21388;-81
2022/03/15 06:45:50;;;;;;;7.90;6.28;;;;;;;6.00;47.35;97890.92;1738610;82;21021;-81
2022/03/15 06:48:16;;;;;;;10.78;7.95;;;;;;;6.09;47.01;97889.88;1738403;82;21160;-81
2022/03/15 06:50:42;;;;;;;8.63;7.22;;;;;;;6.21;47.44;97887.20;1737926;82;21024;-82
2022/03/15 06:53:07;;;;;;;10.38;8.00;;;;;;;6.25;47.66;97888.59;1738604;82;21415;-81
2022/03/15 06:55:34;;;;;;;9.00;6.55;;;;;;;6.31;46.91;97888.58;1751431;82;21060;-81
2022/03/15 06:58:00;;;;;;;9.33;6.40;;;;;;;6.43;47.07;97887.64;1744662;82;21052;-81
2022/03/15 07:00:26;;;;;;;9.75;7.75;;;;;;;6.51;46.64;97893.05;1725081;82;21019;-81
2022/03/15 07:02:52;;;;;;;9.55;8.40;;;;;;;6.60;46.68;97894.89;1749284;82;21514;-82
2022/03/15 07:05:18;;;;;;;8.40;6.40;;;;;;;6.72;46.62;97893.59;1743829;82;21055;-82
2022/03/15 07:07:43;;;;;;;10.45;7.70;;;;;;;6.81;46.64;97895.44;1740373;81;21016;-81
2022/03/15 07:10:10;;;;;;;9.63;7.05;;;;;;;6.90;46.22;97894.72;1744136;82;20965;-81
2022/03/15 07:12:36;;;;;;;9.85;7.22;;;;;;;6.99;46.29;97890.09;1746465;81;21089;-80
2022/03/15 07:15:04;;;;;;;10.48;7.85;;;;;;;7.07;46.18;97894.20;1743761;81;21020;-80
2022/03/15 07:17:30;;;;;;;10.70;8.03;;;;;;;7.16;46.27;97892.66;1742454;81;20938;-80
2022/03/15 07:19:59;;;;;;;8.65;6.78;;;;;;;7.25;46.02;97893.19;1697028;83;20959;-81
2022/03/15 07:22:25;;;;;;;11.30;8.65;;;;;;;7.35;45.55;97897.16;1753321;80;21085;-81
2022/03/15 07:24:51;;;;;;;10.18;7.95;;;;;;;7.47;45.53;97896.13;1703432;83;21345;-81
2022/03/15 07:27:18;;;;;;;11.30;9.33;;;;;;;7.57;46.19;97893.62;1755381;81;20944;-82
2022/03/15 07:29:44;;;;;;;14.15;11.60;;;;;;;7.62;45.48;97897.94;1754400;80;21540;-80
2022/03/15 07:32:10;;;;;;;10.98;7.83;;;;;;;7.72;45.36;97898.83;1756606;80;21006;-80
2022/03/15 07:34:36;;;;;;;11.00;8.83;;;;;;;7.83;45.56;97900.89;1754771;82;20902;-80
2022/03/15 07:37:02;;;;;;;12.68;8.25;;;;;;;7.96;44.95;97900.66;1758816;81;21001;-80
2022/03/15 07:39:28;;;;;;;19.12;10.60;;;;;;;8.09;45.08;97900.46;1754702;81;20988;-80
2022/03/15 07:41:54;;;;;;;11.15;8.30;;;;;;;8.24;44.74;97901.77;1751930;81;20941;-81
2022/03/15 07:44:20;;;;;;;11.45;8.75;;;;;;;8.36;44.23;97894.28;1748074;80;20961;-82
2022/03/15 07:46:48;;;;;;;10.28;7.72;;;;;;;8.50;44.02;97893.58;1750791;82;20986;-82
2022/03/15 07:49:17;;;;;;;8.50;7.37;;;;;;;8.63;44.10;97895.47;1754184;80;21105;-81
2022/03/15 07:51:44;;;;;;;12.25;8.50;;;;;;;8.73;44.04;97888.05;1753363;81;20985;-81
2022/03/15 07:54:12;;;;;;;12.23;8.83;;;;;;;8.86;43.61;97894.28;1750056;82;21427;-80
2022/03/15 07:56:37;;;;;;;10.98;7.08;;;;;;;8.97;43.21;97890.28;1712961;82;21021;-80
2022/03/15 07:59:03;;;;;;;11.03;7.75;;;;;;;9.11;42.64;97889.52;1738703;82;20946;-80
2022/03/15 08:01:29;;;;;;;8.63;6.92;;;;;;;9.23;42.88;97888.44;1740100;81;20982;-80
2022/03/15 08:03:55;;;;;;;10.35;8.50;;;;;;;9.35;42.67;97883.94;1740665;81;20962;-80
2022/03/15 08:06:21;;;;;;;10.35;8.05;;;;;;;9.45;42.08;97882.99;1736121;81;21352;-80
2022/03/15 08:08:48;;;;;;;10.78;7.78;;;;;;;9.56;42.20;97881.52;1738410;82;20985;-80
2022/03/15 08:11:14;;;;;;;10.53;7.90;;;;;;;9.70;41.97;97875.56;1737794;82;21332;-80
2022/03/15 08:13:40;;;;;;;11.73;8.35;;;;;;;9.83;42.01;97874.31;1725030;81;20996;-80
2022/03/15 08:16:06;;;;;;;9.30;7.70;;;;;;;9.95;41.76;97880.17;1737069;82;20985;-81
2022/03/15 08:18:33;;;;;;;10.10;8.43;;;;;;;10.06;41.60;97873.48;1738501;82;21367;-81
2022/03/15 08:20:59;;;;;;;13.30;9.45;;;;;;;10.16;41.37;97869.56;1735977;82;20965;-80
2022/03/15 08:23:29;;;;;;;10.68;8.10;;;;;;;10.28;41.21;97867.64;1738316;82;21029;-80
2022/03/15 08:25:57;;;;;;;13.30;9.25;;;;;;;10.40;40.87;97869.07;1730449;82;20967;-80
2022/03/15 08:28:24;;;;;;;10.13;8.48;;;;;;;10.49;40.98;97866.92;1728696;82;20982;-80
2022/03/15 08:30:52;;;;;;;11.10;9.30;;;;;;;10.57;40.39;97862.28;1738589;82;21030;-81
2022/03/15 08:33:18;;;;;;;13.25;9.35;;;;;;;10.67;40.28;97858.67;1733399;81;20919;-80
2022/03/15 08:35:44;;;;;;;10.80;9.40;;;;;;;10.75;40.28;97856.17;1735825;82;20962;-80
2022/03/15 08:38:11;;;;;;;13.40;10.03;;;;;;;10.83;39.59;97858.84;1736374;82;21313;-80
2022/03/15 08:40:37;;;;;;;11.00;8.68;;;;;;;10.93;39.82;97847.57;1735071;82;21037;-80
2022/03/15 08:43:03;;;;;;;13.88;10.00;;;;;;;11.00;39.71;97848.12;1746374;82;21046;-80
2022/03/15 08:45:28;;;;;;;13.88;10.28;;;;;;;11.10;40.14;97848.05;1719317;83;21090;-80
2022/03/15 08:47:54;;;;;;;12.80;9.70;;;;;;;11.18;39.60;97848.59;1742302;82;21096;-80
2022/03/15 08:50:20;;;;;;;15.63;9.33;;;;;;;11.21;39.32;97843.91;1739016;82;20966;-80
2022/03/15 08:52:47;;;;;;;11.57;8.53;;;;;;;11.27;39.07;97847.23;1738437;81;21491;-81
2022/03/15 08:55:15;;;;;;;11.78;8.78;;;;;;;11.36;39.05;97842.41;1739155;81;21029;-80
2022/03/15 08:57:42;;;;;;;15.03;9.68;;;;;;;11.42;39.00;97837.91;1737672;82;21507;-81
2022/03/15 09:00:09;;;;;;;14.43;10.80;;;;;;;11.48;38.60;97835.19;1738076;82;20982;-81
2022/03/15 09:02:34;;;;;;;17.48;10.93;;;;;;;11.50;38.36;97833.23;1738132;82;21001;-80
2022/03/15 09:05:01;;;;;;;13.32;9.30;;;;;;;11.53;38.65;97828.21;1738088;82;21001;-80
2022/03/15 09:07:30;;;;;;;11.00;9.48;;;;;;;11.56;38.43;97828.75;1737913;82;21336;-81
2022/03/15 09:09:56;;;;;;;14.18;9.45;;;;;;;11.59;38.38;97827.13;1739710;81;21018;-81
2022/03/15 09:12:22;;;;;;;14.40;10.38;;;;;;;11.62;38.38;97827.31;1734727;82;20981;-80
2022/03/15 09:14:48;;;;;;;12.25;9.70;;;;;;;11.63;38.42;97821.95;1722701;82;21556;-80
2022/03/15 09:17:14;;;;;;;11.40;8.70;;;;;;;11.67;38.13;97825.87;1730003;82;21013;-81
2022/03/15 09:19:40;;;;;;;10.30;8.88;;;;;;;11.70;38.16;97822.95;1741484;81;21100;-81
2022/03/15 09:22:07;;;;;;;12.33;10.03;;;;;;;11.75;37.99;97820.40;1743697;81;21054;-81
2022/03/15 09:24:36;;;;;;;11.90;9.55;;;;;;;11.81;37.95;97817.20;1753725;81;21085;-80
2022/03/15 09:27:03;;;;;;;11.15;9.25;;;;;;;11.88;37.48;97817.75;1736301;82;21022;-81
2022/03/15 09:29:29;;;;;;;9.98;8.10;;;;;;;11.93;37.80;97814.18;1713208;82;21011;-81
2022/03/15 09:31:55;;;;;;;12.00;9.23;;;;;;;11.98;37.67;97810.62;1725323;82;21429;-81
2022/03/15 09:34:26;;;;;;;11.60;9.03;;;;;;;12.02;37.92;97812.41;1726981;81;21021;-81
2022/03/15 09:36:49;;;;;;;11.00;9.00;;;;;;;12.06;37.52;97799.92;1737092;82;21456;-81
2022/03/15 09:39:15;;;;;;;13.00;9.50;;;;;;;12.11;37.79;97808.89;1730258;82;20931;-81
2022/03/15 09:41:42;;;;;;;12.13;9.15;;;;;;;12.13;37.28;97798.31;1738421;82;21072;-81
2022/03/15 09:44:09;;;;;;;12.30;9.88;;;;;;;12.16;37.02;97793.59;1731805;82;21364;-80
2022/03/15 09:46:43;;;;;;;11.45;9.50;;;;;;;12.21;37.12;97796.56;1708198;83;21046;-80
2022/03/15 09:49:09;;;;;;;12.55;9.58;;;;;;;12.23;36.86;97789.41;1723702;81;21427;-81
2022/03/15 09:51:36;;;;;;;13.00;10.23;;;;;;;12.27;37.07;97785.98;1738026;82;21108;-81
2022/03/15 09:54:06;;;;;;;14.13;9.75;;;;;;;12.29;37.29;97777.52;1737827;81;21025;-80
2022/03/15 09:56:38;;;;;;;14.20;10.15;;;;;;;12.34;37.49;97781.77;1734790;82;21128;-80
2022/03/15 09:58:59;;;;;;;11.73;10.05;;;;;;;12.40;37.40;97785.55;1730339;82;21033;-81
2022/03/15 10:01:26;;;;;;;12.15;10.40;;;;;;;12.48;37.28;97775.94;1735662;82;21101;-81
2022/03/15 10:03:51;;;;;;;12.68;10.35;;;;;;;12.54;36.87;97774.50;1739769;82;21396;-81
2022/03/15 10:06:19;;;;;;;11.73;9.70;;;;;;;12.58;37.20;97771.41;1740947;82;21006;-81
2022/03/15 10:08:45;;;;;;;12.55;9.65;;;;;;;12.69;36.69;97768.15;1741346;81;21336;-81
2022/03/15 10:11:12;;;;;;;11.83;9.35;;;;;;;12.77;36.16;97769.48;1741018;82;21018;-81
2022/03/15 10:13:39;;;;;;;13.72;9.78;;;;;;;12.85;37.04;97759.87;1736351;81;21344;-79
2022/03/15 10:16:05;;;;;;;12.28;9.63;;;;;;;13.00;36.73;97757.41;1738709;81;21077;-79
2022/03/15 10:18:31;;;;;;;11.53;9.03;;;;;;;13.05;36.71;97748.62;1729892;81;21550;-79
2022/03/15 10:20:56;;;;;;;11.33;8.80;;;;;;;13.10;36.32;97745.03;1731687;81;21080;-79
2022/03/15 10:23:29;;;;;;;12.07;8.85;;;;;;;13.15;36.09;97742.73;1740069;81;21074;-79
2022/03/15 10:25:51;;;;;;;11.25;8.43;;;;;;;13.23;35.84;97734.12;1710733;82;20977;-81
2022/03/15 10:28:17;;;;;;;11.05;9.30;;;;;;;13.32;36.51;97736.22;1719093;81;21023;-81
2022/03/15 10:30:45;;;;;;;10.68;8.90;;;;;;;13.39;35.91;97725.45;1732397;81;21037;-81
2022/03/15 10:33:12;;;;;;;10.88;8.78;;;;;;;13.39;36.07;97724.15;1726756;81;21045;-81
2022/03/15 10:35:42;;;;;;;11.10;8.10;;;;;;;13.45;36.20;97718.25;1737576;82;20934;-81
2022/03/15 10:38:09;;;;;;;33.30;15.40;;;;;;;13.55;36.63;97720.69;1737228;82;21076;-81
2022/03/15 10:40:44;;;;;;;14.45;10.58;;;;;;;13.64;35.39;97711.82;1736164;82;21542;-80
2022/03/15 10:43:23;;;;;;;12.47;8.93;;;;;;;13.67;35.38;97718.05;1739019;81;20985;-81
2022/03/15 10:45:56;;;;;;;12.15;9.68;;;;;;;13.66;35.04;97705.45;1736262;82;20966;-81
2022/03/15 10:48:23;;;;;;;16.93;11.07;;;;;;;13.71;35.94;97697.13;1722441;82;20986;-81
2022/03/15 10:50:59;;;;;;;9.28;6.75;;;;;;;13.81;35.94;97702.94;1732416;82;20927;-81
2022/03/15 10:53:28;;;;;;;9.23;6.50;;;;;;;13.87;35.32;97694.94;1735487;81;22038;-81
2022/03/15 10:56:15;;;;;;;12.05;7.75;;;;;;;13.91;35.40;97685.27;1738669;81;21400;-79
2022/03/15 10:58:59;;;;;;;8.33;6.47;;;;;;;14.02;35.34;97690.13;1737159;81;21312;-79
2022/03/15 11:01:26;;;;;;;7.17;6.35;;;;;;;14.06;34.82;97684.06;1718342;82;20988;-79
2022/03/15 11:04:02;;;;;;;7.83;5.60;;;;;;;14.04;35.18;97682.92;1736620;81;21016;-79
2022/03/15 11:06:43;;;;;;;19.70;7.42;;;;;;;14.06;35.28;97672.30;1738987;82;21042;-79
2022/03/15 11:09:27;;;;;;;10.38;5.92;;;;;;;14.15;35.16;97665.20;1715343;82;21382;-79
2022/03/15 11:12:06;;;;;;;12.07;8.03;;;;;;;14.25;35.38;97673.16;1736677;81;21083;-79
2022/03/15 11:14:39;;;;;;;7.90;7.10;;;;;;;14.33;35.30;97661.36;1739449;81;20959;-79
2022/03/15 11:17:18;;;;;;;8.63;6.72;;;;;;;14.35;35.01;97654.14;1733223;82;21372;-79
2022/03/15 11:19:50;;;;;;;7.83;6.45;;;;;;;14.36;34.91;97646.62;1734843;81;21443;-79
2022/03/15 11:22:30;;;;;;;8.93;6.53;;;;;;;14.46;34.91;97656.05;1794887;79;22838;-79
2022/03/15 11:25:15;;;;;;;10.50;7.20;;;;;;;14.45;35.23;97651.81;1763811;80;21146;-79
2022/03/15 11:27:43;;;;;;;8.13;6.42;;;;;;;14.48;34.65;97650.98;1765553;80;21377;-79
2022/03/15 11:30:12;;;;;;;9.83;6.90;;;;;;;14.48;34.20;97645.75;1777699;80;20908;-79
2022/03/15 11:32:38;;;;;;;12.00;8.20;;;;;;;14.48;34.50;97640.99;1770652;80;21302;-79
2022/03/15 11:35:08;;;;;;;7.75;6.12;;;;;;;14.51;34.14;97642.78;1762809;80;21023;-79